Time;durP1;ratioP1;P1;durP2;ratioP2;P2;SDS_P1;SDS_P2;PMS_P1;PMS_P2;Temp;Humidity;BMP_temperature;BMP_pressure;BME280_temperature;BME280_humidity;BME280_pressure;Samples;Min_cycle;Max_cycle;Signal;HPM_P1;HPM_P2
2021/08/22 00:00:28;;;;;;;1.50;0.90;;;20.20;98.20;;;;;;5012227;28;20468;-81
2021/08/22 00:02:55;;;;;;;1.50;1.10;;;20.20;98.20;;;;;;5007664;28;20865;-82
2021/08/22 00:05:22;;;;;;;1.50;1.00;;;20.20;98.20;;;;;;5009722;28;20468;-82
2021/08/22 00:07:51;;;;;;;1.50;1.00;;;20.10;98.20;;;;;;5003115;28;20554;-81
2021/08/22 00:10:18;;;;;;;1.50;1.00;;;20.10;98.20;;;;;;5011103;28;20563;-81
2021/08/22 00:12:45;;;;;;;1.57;1.00;;;20.10;98.20;;;;;;5013387;28;20491;-80
2021/08/22 00:15:13;;;;;;;1.50;0.90;;;20.10;98.20;;;;;;5011598;28;20818;-80
2021/08/22 00:17:40;;;;;;;1.53;1.00;;;20.10;98.20;;;;;;5005061;28;20490;-81
2021/08/22 00:20:08;;;;;;;1.50;0.90;;;20.10;98.20;;;;;;5014072;28;20478;-80
2021/08/22 00:22:35;;;;;;;1.50;1.00;;;20.00;98.20;;;;;;5006518;28;20495;-81
2021/08/22 00:25:04;;;;;;;1.50;0.90;;;20.00;98.20;;;;;;5009390;28;20460;-80
2021/08/22 00:27:31;;;;;;;1.50;1.00;;;20.00;98.20;;;;;;4998817;28;20487;-81
2021/08/22 00:29:57;;;;;;;1.53;0.97;;;20.00;98.20;;;;;;5004100;28;20463;-80
2021/08/22 00:32:24;;;;;;;1.50;1.00;;;19.90;98.20;;;;;;5002786;28;20475;-81
2021/08/22 00:34:51;;;;;;;1.53;0.90;;;19.90;98.20;;;;;;5010596;28;20523;-80
2021/08/22 00:37:18;;;;;;;1.50;0.90;;;19.90;98.20;;;;;;5002480;28;20487;-80
2021/08/22 00:39:45;;;;;;;1.50;1.00;;;19.80;98.20;;;;;;5010955;28;20825;-79
2021/08/22 00:42:13;;;;;;;1.50;1.00;;;19.80;98.20;;;;;;5002435;28;20483;-80
2021/08/22 00:44:40;;;;;;;1.50;0.93;;;19.70;98.20;;;;;;5015541;28;20967;-79
2021/08/22 00:47:07;;;;;;;1.50;0.90;;;19.70;98.20;;;;;;5006112;28;20479;-78
2021/08/22 00:49:34;;;;;;;1.50;1.00;;;19.70;98.20;;;;;;5017179;28;20461;-79
2021/08/22 00:52:01;;;;;;;1.50;0.90;;;19.60;98.20;;;;;;5001130;28;20484;-79
2021/08/22 00:54:28;;;;;;;1.50;0.90;;;19.60;98.20;;;;;;5008000;28;20963;-80
2021/08/22 00:56:55;;;;;;;1.50;0.90;;;19.60;98.20;;;;;;5006370;28;20569;-81
2021/08/22 00:59:24;;;;;;;1.50;0.90;;;19.60;98.20;;;;;;5010531;28;21053;-80
2021/08/22 01:01:54;;;;;;;1.57;1.00;;;19.60;98.20;;;;;;5012046;28;20483;-80
2021/08/22 01:04:27;;;;;;;1.50;0.90;;;19.60;98.20;;;;;;5018540;28;20471;-80
2021/08/22 01:07:03;;;;;;;1.50;1.00;;;19.50;98.20;;;;;;5011198;28;21048;-80
2021/08/22 01:09:32;;;;;;;1.50;0.90;;;19.50;98.20;;;;;;5017609;28;20494;-79
2021/08/22 01:12:04;;;;;;;1.50;0.90;;;19.40;98.20;;;;;;5009538;28;20837;-80
2021/08/22 01:14:38;;;;;;;1.50;1.00;;;19.30;98.20;;;;;;5020034;28;20975;-80
2021/08/22 01:17:06;;;;;;;1.50;0.90;;;19.30;98.20;;;;;;5012650;28;20489;-79
2021/08/22 01:19:55;;;;;;;1.50;0.90;;;19.30;98.20;;;;;;5017711;28;20896;-80
2021/08/22 01:22:24;;;;;;;1.50;0.97;;;19.20;98.20;;;;;;5002754;28;20725;-81
2021/08/22 01:24:52;;;;;;;1.50;0.90;;;19.20;98.20;;;;;;5012077;28;20463;-81
2021/08/22 01:27:20;;;;;;;1.50;0.90;;;19.10;98.20;;;;;;5001163;28;20558;-80
2021/08/22 01:29:52;;;;;;;1.50;1.00;;;19.10;98.20;;;;;;5012768;28;20475;-80
2021/08/22 01:32:19;;;;;;;1.50;1.00;;;19.10;98.20;;;;;;5011080;28;20487;-79
2021/08/22 01:34:49;;;;;;;1.50;0.90;;;19.10;98.20;;;;;;5015383;28;20470;-80
2021/08/22 01:37:18;;;;;;;1.50;0.90;;;19.10;98.20;;;;;;5009656;28;20597;-79
2021/08/22 01:39:46;;;;;;;1.50;0.93;;;19.10;98.20;;;;;;5003851;28;20479;-79
2021/08/22 01:42:13;;;;;;;1.50;0.90;;;19.00;98.20;;;;;;5005662;28;20503;-79
2021/08/22 01:44:44;;;;;;;1.50;0.90;;;19.00;98.20;;;;;;5016397;28;20460;-80
2021/08/22 01:47:11;;;;;;;1.50;0.90;;;18.90;98.20;;;;;;5007236;28;20484;-81
2021/08/22 01:49:38;;;;;;;1.50;0.97;;;18.90;98.20;;;;;;5016316;28;20552;-80
2021/08/22 01:52:08;;;;;;;1.50;1.00;;;18.80;98.20;;;;;;5011818;28;20863;-80
2021/08/22 01:54:36;;;;;;;1.53;1.00;;;18.80;98.20;;;;;;5015471;28;20463;-80
2021/08/22 01:57:04;;;;;;;1.50;1.00;;;18.80;98.20;;;;;;5001489;28;20498;-80
2021/08/22 01:59:31;;;;;;;1.57;0.90;;;18.80;98.20;;;;;;5009866;28;20476;-80
2021/08/22 02:01:58;;;;;;;1.53;1.00;;;18.80;98.20;;;;;;5011677;28;20498;-80
2021/08/22 02:04:31;;;;;;;1.50;0.90;;;18.70;98.20;;;;;;5016027;28;20918;-81
2021/08/22 02:07:02;;;;;;;1.50;1.00;;;18.70;98.20;;;;;;5003791;28;20487;-79
2021/08/22 02:09:40;;;;;;;1.50;0.90;;;18.70;98.20;;;;;;5005027;28;20473;-79
2021/08/22 02:12:11;;;;;;;1.50;1.00;;;18.70;98.20;;;;;;5012721;28;20487;-80
2021/08/22 02:14:44;;;;;;;1.50;1.00;;;18.70;98.20;;;;;;5012023;28;20981;-82
2021/08/22 02:17:12;;;;;;;1.50;1.00;;;18.70;98.20;;;;;;5009587;28;20553;-80
2021/08/22 02:19:40;;;;;;;1.53;1.00;;;18.70;98.20;;;;;;5013331;28;20468;-80
2021/08/22 02:22:07;;;;;;;1.50;1.00;;;18.70;98.20;;;;;;5008747;28;20800;-80
2021/08/22 02:24:36;;;;;;;1.57;1.00;;;18.70;98.20;;;;;;5015804;28;20471;-80
2021/08/22 02:27:03;;;;;;;1.50;0.90;;;18.70;98.20;;;;;;5011095;28;20842;-80
2021/08/22 02:29:30;;;;;;;1.50;0.97;;;18.70;98.20;;;;;;5011573;28;20467;-82
2021/08/22 02:31:57;;;;;;;1.50;0.90;;;18.70;98.20;;;;;;5002780;28;20850;-80
2021/08/22 02:34:24;;;;;;;1.50;0.90;;;18.70;98.20;;;;;;5010931;28;20491;-80
2021/08/22 02:36:51;;;;;;;1.50;1.00;;;18.80;98.20;;;;;;5010070;28;20665;-81
2021/08/22 02:39:17;;;;;;;1.50;1.00;;;18.80;98.20;;;;;;5018668;28;20468;-79
2021/08/22 02:41:45;;;;;;;1.60;1.00;;;18.80;98.20;;;;;;5008494;28;20483;-80
2021/08/22 02:44:12;;;;;;;1.50;1.00;;;18.80;98.20;;;;;;5010598;28;20464;-80
2021/08/22 02:46:39;;;;;;;1.50;0.90;;;18.80;98.20;;;;;;5005761;28;20479;-80
2021/08/22 02:49:06;;;;;;;1.53;1.00;;;18.90;98.20;;;;;;5012162;28;20986;-78
2021/08/22 02:51:33;;;;;;;1.50;0.90;;;18.90;98.20;;;;;;5002583;28;20515;-80
2021/08/22 02:53:59;;;;;;;1.50;0.90;;;18.90;98.20;;;;;;5012119;28;20479;-80
2021/08/22 02:56:26;;;;;;;1.53;1.00;;;18.90;98.20;;;;;;5004658;28;20498;-78
2021/08/22 02:58:55;;;;;;;1.50;1.00;;;18.90;98.20;;;;;;5012265;28;20539;-78
2021/08/22 03:01:21;;;;;;;1.53;1.00;;;19.00;98.20;;;;;;5002022;28;20481;-79
2021/08/22 03:03:48;;;;;;;1.50;0.90;;;19.00;98.20;;;;;;5019424;28;20536;-80
2021/08/22 03:06:15;;;;;;;1.53;1.00;;;19.00;98.20;;;;;;5001452;28;20830;-79
2021/08/22 03:08:42;;;;;;;1.50;1.00;;;19.00;98.20;;;;;;5011014;28;20491;-79
2021/08/22 03:11:09;;;;;;;1.50;1.00;;;19.00;98.20;;;;;;5002420;28;20519;-79
2021/08/22 03:13:36;;;;;;;1.50;1.00;;;19.10;98.20;;;;;;5016128;28;20555;-79
2021/08/22 03:16:05;;;;;;;1.53;1.00;;;19.10;98.20;;;;;;5003518;28;20464;-79
2021/08/22 03:18:32;;;;;;;1.57;1.00;;;19.10;98.20;;;;;;5016031;28;20828;-80
2021/08/22 03:20:58;;;;;;;1.50;1.00;;;19.10;98.20;;;;;;5003294;28;20476;-77
2021/08/22 03:23:25;;;;;;;1.53;1.00;;;19.10;98.20;;;;;;5009661;28;20492;-79
2021/08/22 03:25:52;;;;;;;1.50;0.97;;;19.10;98.20;;;;;;4996757;28;20470;-77
2021/08/22 03:28:20;;;;;;;1.50;0.97;;;19.10;98.20;;;;;;5012011;28;20488;-78
2021/08/22 03:30:46;;;;;;;1.50;1.00;;;19.10;98.20;;;;;;5006251;28;20464;-77
2021/08/22 03:33:15;;;;;;;1.50;0.90;;;19.10;98.20;;;;;;5011826;28;20524;-79
2021/08/22 03:35:42;;;;;;;1.50;1.00;;;19.10;98.20;;;;;;5011624;28;20858;-81
2021/08/22 03:38:09;;;;;;;1.50;1.00;;;19.10;98.20;;;;;;5001972;28;20502;-78
2021/08/22 03:40:36;;;;;;;1.50;1.00;;;19.10;98.20;;;;;;5008374;28;20460;-80
2021/08/22 03:43:03;;;;;;;1.50;1.00;;;19.10;98.20;;;;;;5008983;28;20502;-81
2021/08/22 03:45:30;;;;;;;1.50;1.00;;;19.10;98.20;;;;;;5012070;28;20463;-80
2021/08/22 03:47:57;;;;;;;1.50;0.90;;;19.10;98.20;;;;;;5009472;28;20484;-80
2021/08/22 03:50:25;;;;;;;1.50;0.90;;;19.10;98.20;;;;;;5009216;28;20479;-80
2021/08/22 03:52:53;;;;;;;1.50;1.10;;;19.10;98.20;;;;;;5004746;28;20487;-80
2021/08/22 03:55:20;;;;;;;1.53;0.90;;;19.10;98.20;;;;;;5012443;28;20484;-80
2021/08/22 03:57:47;;;;;;;1.50;0.90;;;19.10;98.20;;;;;;4998963;28;20484;-80
2021/08/22 04:00:15;;;;;;;1.50;0.90;;;19.10;98.20;;;;;;5011503;28;20466;-80
2021/08/22 04:02:42;;;;;;;1.50;1.00;;;19.10;98.20;;;;;;5008765;28;20490;-78
2021/08/22 04:05:11;;;;;;;1.50;0.90;;;19.10;98.20;;;;;;5022775;23;20515;-80
2021/08/22 04:07:46;;;;;;;1.50;0.90;;;19.10;98.20;;;;;;4995325;28;20479;-79
2021/08/22 04:10:13;;;;;;;1.50;1.00;;;19.10;98.20;;;;;;5023940;28;20471;-80
2021/08/22 04:12:40;;;;;;;1.50;1.00;;;19.10;98.20;;;;;;5009957;28;20488;-80
2021/08/22 04:15:07;;;;;;;1.50;0.90;;;19.10;98.20;;;;;;5008858;28;20615;-80
2021/08/22 04:17:34;;;;;;;1.50;0.90;;;19.10;98.20;;;;;;4995531;28;20494;-80
2021/08/22 04:20:01;;;;;;;1.50;0.90;;;19.10;98.20;;;;;;5007680;28;20471;-80
2021/08/22 04:22:28;;;;;;;1.50;0.90;;;19.10;98.20;;;;;;4990909;28;20484;-78
2021/08/22 04:24:56;;;;;;;1.50;1.00;;;19.10;98.20;;;;;;5006458;28;20464;-79
2021/08/22 04:27:23;;;;;;;1.50;0.90;;;19.10;98.20;;;;;;4988671;28;20562;-78
2021/08/22 04:29:50;;;;;;;1.50;1.00;;;19.10;98.20;;;;;;5011171;28;20999;-79
2021/08/22 04:32:18;;;;;;;1.57;1.00;;;19.00;98.20;;;;;;4997653;28;20477;-80
2021/08/22 04:34:45;;;;;;;1.53;0.90;;;19.00;98.20;;;;;;5018316;28;20483;-80
2021/08/22 04:37:12;;;;;;;1.50;0.90;;;19.00;98.20;;;;;;4995531;28;20486;-79
2021/08/22 04:39:38;;;;;;;1.50;0.90;;;19.00;98.20;;;;;;5004268;28;20480;-80
2021/08/22 04:42:07;;;;;;;1.50;0.90;;;19.00;98.20;;;;;;4999353;28;20849;-81
2021/08/22 04:44:34;;;;;;;1.50;1.00;;;18.90;98.20;;;;;;5012224;28;20470;-79
2021/08/22 04:47:01;;;;;;;1.50;0.90;;;18.90;98.20;;;;;;4998971;28;20495;-80
2021/08/22 04:49:27;;;;;;;1.50;0.90;;;18.90;98.20;;;;;;5001850;28;20477;-81
2021/08/22 04:51:54;;;;;;;1.57;0.90;;;18.90;98.20;;;;;;4981094;28;20498;-80
2021/08/22 04:54:22;;;;;;;1.50;0.90;;;18.90;98.20;;;;;;5009142;28;20463;-81
2021/08/22 04:56:49;;;;;;;1.50;1.00;;;18.90;98.20;;;;;;4986431;28;20494;-80
2021/08/22 04:59:17;;;;;;;1.50;0.90;;;18.90;98.20;;;;;;5007606;28;20459;-80
2021/08/22 05:01:44;;;;;;;1.53;1.00;;;18.90;98.20;;;;;;4990653;28;20896;-80
2021/08/22 05:04:11;;;;;;;1.50;0.90;;;18.90;98.20;;;;;;5012673;28;20762;-81
2021/08/22 05:06:38;;;;;;;1.50;1.00;;;18.90;98.20;;;;;;4997238;28;20485;-80
2021/08/22 05:09:04;;;;;;;1.50;0.90;;;18.90;98.20;;;;;;5004640;28;21033;-80
2021/08/22 05:11:31;;;;;;;1.53;0.90;;;18.90;98.20;;;;;;4998831;28;20502;-80
2021/08/22 05:13:58;;;;;;;1.50;1.00;;;18.90;98.20;;;;;;5014763;28;21005;-79
2021/08/22 05:16:29;;;;;;;1.50;0.90;;;18.90;98.20;;;;;;4980686;28;20487;-80
2021/08/22 05:18:57;;;;;;;1.50;0.90;;;18.90;98.20;;;;;;5007027;28;20586;-79
2021/08/22 05:21:23;;;;;;;1.53;0.90;;;18.80;98.20;;;;;;4996058;28;20499;-81
2021/08/22 05:23:50;;;;;;;1.50;0.90;;;18.90;98.20;;;;;;5009100;28;21076;-80
2021/08/22 05:26:17;;;;;;;1.50;1.00;;;18.90;98.20;;;;;;4981380;28;20491;-79
2021/08/22 05:28:44;;;;;;;1.50;1.00;;;18.90;98.20;;;;;;5001241;28;20511;-79
2021/08/22 05:31:11;;;;;;;2.90;1.77;;;19.00;98.20;;;;;;5006433;28;21306;-80
2021/08/22 05:33:39;;;;;;;1.50;1.00;;;19.00;98.20;;;;;;4995759;28;20463;-80
2021/08/22 05:36:16;;;;;;;1.50;1.00;;;19.00;98.20;;;;;;4996386;28;20472;-80
2021/08/22 05:38:43;;;;;;;1.50;0.97;;;19.00;98.20;;;;;;5005321;28;20453;-80
2021/08/22 05:41:10;;;;;;;1.50;1.00;;;19.10;98.20;;;;;;4991904;28;20489;-80
2021/08/22 05:43:37;;;;;;;1.50;0.90;;;19.10;98.20;;;;;;5007689;28;20470;-80
2021/08/22 05:46:04;;;;;;;1.50;0.90;;;19.20;98.20;;;;;;5000461;28;20465;-78
2021/08/22 05:48:32;;;;;;;1.50;0.97;;;19.20;98.20;;;;;;5010515;28;20482;-78
2021/08/22 05:51:01;;;;;;;1.50;0.90;;;19.20;98.20;;;;;;5002254;28;20472;-80
2021/08/22 05:53:28;;;;;;;1.50;1.00;;;19.20;98.20;;;;;;5002783;28;20475;-79
2021/08/22 05:55:59;;;;;;;3.53;2.07;;;19.20;98.20;;;;;;5005206;28;20589;-79
2021/08/22 05:58:26;;;;;;;1.53;0.90;;;19.20;98.20;;;;;;5000979;28;20862;-80
2021/08/22 06:00:53;;;;;;;1.50;0.90;;;19.30;98.20;;;;;;5003022;28;20475;-81
2021/08/22 06:03:20;;;;;;;1.50;0.93;;;19.30;98.20;;;;;;5009743;28;20543;-79
2021/08/22 06:05:46;;;;;;;1.50;1.00;;;19.30;98.20;;;;;;5018003;28;20494;-78
2021/08/22 06:08:15;;;;;;;1.50;1.00;;;19.30;98.20;;;;;;4987733;28;20487;-78
2021/08/22 06:10:41;;;;;;;1.50;1.00;;;19.30;98.20;;;;;;5011792;28;21004;-78
2021/08/22 06:13:08;;;;;;;1.50;0.90;;;19.30;98.20;;;;;;4986409;28;20989;-81
2021/08/22 06:15:35;;;;;;;1.60;1.10;;;19.30;98.20;;;;;;5018294;28;20837;-79
2021/08/22 06:18:02;;;;;;;1.50;0.90;;;19.40;98.20;;;;;;5007078;28;20559;-79
2021/08/22 06:20:29;;;;;;;1.50;1.00;;;19.50;98.20;;;;;;5025688;28;20460;-79
2021/08/22 06:22:56;;;;;;;1.50;0.90;;;19.70;98.20;;;;;;4981001;28;20493;-81
2021/08/22 06:25:24;;;;;;;1.53;0.90;;;19.80;98.20;;;;;;5016491;28;20463;-77
2021/08/22 06:27:51;;;;;;;1.50;1.00;;;19.90;98.20;;;;;;4981062;28;20488;-78
2021/08/22 06:30:18;;;;;;;1.50;0.93;;;20.00;98.20;;;;;;5024861;28;20525;-77
2021/08/22 06:32:45;;;;;;;1.50;1.00;;;20.00;98.20;;;;;;4990315;28;20492;-79
2021/08/22 06:35:12;;;;;;;1.50;0.90;;;20.00;98.20;;;;;;5010676;28;20475;-77
2021/08/22 06:37:40;;;;;;;1.50;0.93;;;20.10;98.20;;;;;;4999144;28;20490;-80
2021/08/22 06:40:08;;;;;;;1.50;0.93;;;20.10;98.20;;;;;;5018223;28;20906;-78
2021/08/22 06:42:37;;;;;;;1.50;0.90;;;20.10;98.20;;;;;;4988469;28;20488;-79
2021/08/22 06:45:04;;;;;;;1.53;0.90;;;20.10;98.20;;;;;;5021621;28;20471;-79
2021/08/22 06:47:31;;;;;;;1.50;0.90;;;20.20;98.20;;;;;;4998013;28;20975;-78
2021/08/22 06:49:58;;;;;;;1.50;1.00;;;20.20;98.20;;;;;;5018868;28;20496;-79
2021/08/22 06:52:25;;;;;;;1.53;1.03;;;20.30;98.20;;;;;;4997385;28;20483;-76
2021/08/22 06:54:52;;;;;;;1.50;0.97;;;20.30;98.20;;;;;;5016695;28;20460;-77
2021/08/22 06:57:18;;;;;;;1.57;1.00;;;20.40;98.20;;;;;;4983960;28;20685;-79
2021/08/22 06:59:47;;;;;;;1.50;0.90;;;20.50;98.20;;;;;;5011153;28;20471;-79
2021/08/22 07:02:14;;;;;;;1.57;1.00;;;20.60;98.20;;;;;;4994493;28;20508;-78
2021/08/22 07:04:40;;;;;;;1.50;0.90;;;20.60;98.20;;;;;;5024266;28;20460;-80
2021/08/22 07:07:07;;;;;;;1.83;1.30;;;20.60;98.20;;;;;;4997032;28;20489;-77
2021/08/22 07:09:34;;;;;;;1.50;0.97;;;20.50;98.20;;;;;;5011409;28;20492;-79
2021/08/22 07:12:01;;;;;;;1.53;0.90;;;20.50;98.20;;;;;;5002918;28;20495;-79
2021/08/22 07:14:28;;;;;;;1.50;0.90;;;20.60;98.20;;;;;;5022063;28;20488;-79
2021/08/22 07:16:57;;;;;;;1.50;0.90;;;20.60;98.20;;;;;;4990115;28;20556;-78
2021/08/22 07:19:24;;;;;;;1.50;0.90;;;20.80;98.20;;;;;;5008082;28;20463;-78
2021/08/22 07:21:50;;;;;;;1.50;0.90;;;20.90;98.20;;;;;;5003075;28;20488;-79
2021/08/22 07:24:17;;;;;;;1.50;0.90;;;21.00;98.20;;;;;;5010004;28;20473;-78
2021/08/22 07:26:44;;;;;;;1.50;1.00;;;21.10;98.20;;;;;;5000726;28;20826;-79
2021/08/22 07:29:11;;;;;;;1.53;0.90;;;21.20;98.20;;;;;;5006775;28;20484;-78
2021/08/22 07:31:38;;;;;;;1.50;1.00;;;21.20;98.20;;;;;;4988512;28;20488;-76
2021/08/22 07:34:06;;;;;;;1.50;0.90;;;21.20;98.20;;;;;;5002650;28;20582;-78
2021/08/22 07:36:33;;;;;;;1.50;0.90;;;21.10;98.20;;;;;;4993570;28;20575;-80
2021/08/22 07:39:00;;;;;;;1.50;0.90;;;21.00;98.20;;;;;;4994740;28;20465;-81
2021/08/22 07:41:27;;;;;;;1.53;0.90;;;21.00;98.20;;;;;;4988296;28;20480;-81
2021/08/22 07:43:53;;;;;;;1.53;0.90;;;20.90;98.20;;;;;;4993993;28;20523;-81
2021/08/22 07:46:21;;;;;;;1.50;0.90;;;20.90;98.20;;;;;;4987922;28;20491;-81
2021/08/22 07:48:48;;;;;;;1.50;0.90;;;20.90;98.20;;;;;;4995681;28;20584;-80
2021/08/22 07:51:16;;;;;;;1.57;1.00;;;20.90;98.20;;;;;;4988521;28;20557;-79
2021/08/22 07:53:43;;;;;;;1.50;0.90;;;20.90;98.20;;;;;;4995068;28;20499;-81
2021/08/22 07:56:11;;;;;;;1.50;0.90;;;20.90;98.20;;;;;;4988222;28;20480;-81
2021/08/22 07:58:38;;;;;;;1.60;1.00;;;20.90;98.20;;;;;;4989745;28;20739;-79
2021/08/22 08:01:05;;;;;;;4.03;3.23;;;21.00;98.20;;;;;;4989754;28;20461;-82
2021/08/22 08:03:34;;;;;;;1.50;1.00;;;21.20;98.20;;;;;;5002982;28;20470;-79
2021/08/22 08:06:01;;;;;;;1.50;0.90;;;21.30;98.20;;;;;;4987290;28;20980;-83
2021/08/22 08:08:30;;;;;;;1.50;0.90;;;21.50;98.20;;;;;;4996342;28;20916;-79
2021/08/22 08:10:56;;;;;;;1.50;0.90;;;21.60;98.20;;;;;;4991341;28;20575;-82
2021/08/22 08:13:23;;;;;;;1.50;0.90;;;21.50;98.20;;;;;;5001672;28;20467;-81
2021/08/22 08:15:50;;;;;;;1.50;0.90;;;21.50;98.20;;;;;;4999016;28;20723;-81
2021/08/22 08:18:17;;;;;;;1.53;0.90;;;21.50;98.20;;;;;;4995194;28;20469;-80
2021/08/22 08:20:44;;;;;;;1.50;0.90;;;21.50;98.20;;;;;;5010430;28;20457;-79
2021/08/22 08:23:12;;;;;;;1.50;0.90;;;21.40;98.20;;;;;;4979615;28;20483;-80
2021/08/22 08:25:40;;;;;;;1.50;0.90;;;21.50;98.20;;;;;;5011753;28;20472;-81
2021/08/22 08:28:07;;;;;;;1.50;0.90;;;21.50;98.20;;;;;;4983451;28;20489;-81
2021/08/22 08:30:34;;;;;;;1.50;0.90;;;21.60;98.20;;;;;;5012151;28;20590;-82
2021/08/22 08:33:04;;;;;;;1.50;0.90;;;21.70;98.20;;;;;;4969788;28;21031;-78
2021/08/22 08:35:31;;;;;;;1.50;0.90;;;21.80;98.20;;;;;;5001883;28;20868;-81
2021/08/22 08:37:58;;;;;;;1.50;0.90;;;21.90;98.20;;;;;;4976330;28;20497;-81
2021/08/22 08:40:25;;;;;;;1.53;0.90;;;22.00;98.20;;;;;;5007590;28;20459;-80
2021/08/22 08:42:54;;;;;;;1.50;0.90;;;22.00;98.20;;;;;;4979925;28;20520;-81
2021/08/22 08:45:27;;;;;;;1.50;0.90;;;22.00;98.20;;;;;;5006173;28;20846;-80
2021/08/22 08:47:54;;;;;;;1.50;0.90;;;22.00;98.20;;;;;;4985814;28;20480;-80
2021/08/22 08:50:28;;;;;;;1.50;0.90;;;22.00;98.20;;;;;;4999455;28;20723;-80
2021/08/22 08:52:59;;;;;;;1.50;0.90;;;22.00;98.20;;;;;;4967906;28;20489;-77
2021/08/22 08:55:28;;;;;;;1.50;0.90;;;22.00;98.20;;;;;;5003910;28;20463;-78
2021/08/22 08:57:57;;;;;;;1.53;0.90;;;22.10;98.20;;;;;;4988651;28;20711;-77
2021/08/22 09:00:24;;;;;;;1.50;0.90;;;22.10;98.20;;;;;;5021487;28;20898;-77
2021/08/22 09:02:51;;;;;;;1.50;0.90;;;22.20;98.20;;;;;;4982462;28;20900;-76
2021/08/22 09:05:28;;;;;;;1.50;0.90;;;22.30;98.20;;;;;;5000530;28;20472;-77
2021/08/22 09:08:49;;;;;;;1.50;0.90;;;22.50;98.20;;;;;;4973506;28;20807;-77
2021/08/22 09:11:58;;;;;;;1.50;0.90;;;22.80;98.20;;;;;;4990937;28;20477;-80
2021/08/22 09:15:13;;;;;;;1.50;0.90;;;23.00;98.20;;;;;;4969476;28;20463;-81
2021/08/22 09:18:17;;;;;;;1.50;0.90;;;23.30;98.20;;;;;;4983108;28;20484;-80
2021/08/22 09:21:33;;;;;;;1.53;0.90;;;23.50;98.10;;;;;;5006354;28;20449;-80
2021/08/22 09:24:45;;;;;;;1.50;0.90;;;23.70;97.50;;;;;;4990899;28;20490;-81
2021/08/22 09:27:49;;;;;;;1.50;0.90;;;23.80;96.30;;;;;;4988731;28;20480;-80
2021/08/22 09:31:04;;;;;;;1.50;0.90;;;24.00;95.50;;;;;;5003491;28;20565;-79
2021/08/22 09:34:08;;;;;;;1.50;0.90;;;24.20;94.30;;;;;;4980638;28;20993;-79
2021/08/22 09:37:14;;;;;;;1.50;0.90;;;24.50;93.80;;;;;;4995935;28;20492;-78
2021/08/22 09:40:18;;;;;;;1.53;0.90;;;24.70;92.00;;;;;;4993786;28;20467;-78
2021/08/22 09:43:23;;;;;;;1.50;0.90;;;24.80;91.50;;;;;;4972152;28;21016;-78
2021/08/22 09:46:25;;;;;;;1.53;0.90;;;25.00;90.00;;;;;;5000226;28;20538;-79
2021/08/22 09:49:30;;;;;;;1.50;0.90;;;25.30;91.30;;;;;;4991483;28;20967;-80
2021/08/22 09:52:39;;;;;;;1.57;0.90;;;25.50;89.90;;;;;;4974441;28;20492;-78
2021/08/22 09:55:51;;;;;;;1.60;1.27;;;25.50;89.00;;;;;;5017865;28;20471;-78
2021/08/22 09:58:54;;;;;;;1.53;0.90;;;25.20;89.10;;;;;;4979025;28;20971;-80
2021/08/22 10:01:55;;;;;;;1.50;0.90;;;24.80;88.80;;;;;;4983487;28;21171;-80
2021/08/22 10:05:03;;;;;;;1.50;0.90;;;24.60;90.10;;;;;;4995522;28;20834;-79
2021/08/22 10:07:53;;;;;;;1.50;0.80;;;24.60;89.90;;;;;;4984824;28;21025;-77
2021/08/22 10:10:23;;;;;;;1.50;0.90;;;24.80;89.80;;;;;;5005866;28;20529;-79
2021/08/22 10:12:50;;;;;;;1.50;0.90;;;24.90;88.90;;;;;;4990607;28;20502;-79
2021/08/22 10:15:19;;;;;;;1.50;0.90;;;24.90;88.10;;;;;;5015534;28;20959;-79
2021/08/22 10:17:48;;;;;;;1.50;0.83;;;24.80;87.90;;;;;;4986227;28;20787;-80
2021/08/22 10:20:20;;;;;;;1.50;0.87;;;24.70;87.90;;;;;;5013078;28;21047;-78
2021/08/22 10:22:48;;;;;;;1.50;0.90;;;24.70;88.10;;;;;;4973066;28;21167;-80
2021/08/22 10:25:20;;;;;;;1.50;0.90;;;24.70;86.70;;;;;;5002850;28;20840;-79
2021/08/22 10:27:51;;;;;;;2.07;1.00;;;24.70;87.60;;;;;;4972313;28;20922;-81
2021/08/22 10:30:26;;;;;;;1.50;0.90;;;24.80;87.20;;;;;;5006772;28;20498;-78
2021/08/22 10:33:16;;;;;;;1.50;0.80;;;25.00;86.30;;;;;;4982105;28;20495;-77
2021/08/22 10:35:43;;;;;;;1.50;0.90;;;25.20;86.70;;;;;;5011705;28;20463;-78
2021/08/22 10:38:21;;;;;;;1.50;0.80;;;25.50;86.10;;;;;;4976484;28;20487;-81
2021/08/22 10:40:49;;;;;;;1.57;0.90;;;25.70;85.30;;;;;;4995568;28;20489;-78
2021/08/22 10:43:41;;;;;;;1.50;0.90;;;26.00;82.80;;;;;;5007949;28;20966;-78
2021/08/22 10:46:09;;;;;;;1.57;0.90;;;26.10;81.30;;;;;;4997869;28;20495;-77
2021/08/22 10:48:51;;;;;;;1.50;0.90;;;26.30;80.40;;;;;;4989767;28;20490;-77
2021/08/22 10:51:20;;;;;;;1.50;0.90;;;26.40;80.30;;;;;;4986311;28;20470;-80
2021/08/22 10:53:50;;;;;;;1.50;0.90;;;26.40;80.70;;;;;;5003022;28;20463;-80
2021/08/22 10:56:37;;;;;;;1.50;0.90;;;26.20;79.60;;;;;;4998429;28;20881;-79
2021/08/22 10:59:06;;;;;;;1.50;0.90;;;26.10;80.00;;;;;;5002132;28;20816;-78
2021/08/22 11:01:36;;;;;;;1.50;0.83;;;26.20;80.00;;;;;;4987849;28;21076;-77
2021/08/22 11:04:06;;;;;;;1.50;0.80;;;26.30;80.00;;;;;;4995210;28;20490;-76
2021/08/22 11:06:34;;;;;;;1.50;0.80;;;26.20;78.50;;;;;;4982251;28;20517;-78
2021/08/22 11:09:01;;;;;;;1.50;0.80;;;26.10;78.80;;;;;;4974512;28;20476;-77
2021/08/22 11:11:28;;;;;;;1.50;0.80;;;25.90;77.90;;;;;;5001275;28;20567;-74
2021/08/22 11:13:56;;;;;;;1.50;0.80;;;25.90;79.80;;;;;;5006524;28;20495;-75
2021/08/22 11:16:39;;;;;;;1.50;0.80;;;26.10;79.70;;;;;;4994113;28;20483;-76
2021/08/22 11:19:08;;;;;;;1.50;0.83;;;26.10;79.10;;;;;;5002374;28;20461;-77
2021/08/22 11:21:34;;;;;;;1.50;0.90;;;26.20;79.20;;;;;;5001387;28;20801;-76
2021/08/22 11:24:02;;;;;;;1.50;0.80;;;26.20;79.60;;;;;;4991995;28;20756;-76
2021/08/22 11:26:29;;;;;;;1.50;0.90;;;26.20;79.40;;;;;;4988086;28;20484;-76
2021/08/22 11:28:57;;;;;;;1.50;0.90;;;26.30;78.60;;;;;;4992815;28;20770;-76
2021/08/22 11:31:28;;;;;;;1.50;0.90;;;26.30;77.70;;;;;;4991898;28;21171;-74
2021/08/22 11:33:55;;;;;;;1.50;0.80;;;26.30;78.20;;;;;;5008139;28;21251;-76
2021/08/22 11:36:28;;;;;;;1.73;1.53;;;26.30;78.80;;;;;;4998136;28;20976;-74
2021/08/22 11:39:09;;;;;;;1.50;0.90;;;26.30;78.60;;;;;;4990886;28;21061;-74
2021/08/22 11:41:35;;;;;;;1.50;0.80;;;26.40;79.30;;;;;;4978594;28;20480;-74
2021/08/22 11:44:02;;;;;;;1.50;0.90;;;26.70;78.30;;;;;;5003141;28;20470;-76
2021/08/22 11:46:30;;;;;;;1.50;0.80;;;26.90;78.60;;;;;;4994790;28;20472;-78
2021/08/22 11:48:58;;;;;;;1.50;0.80;;;27.00;78.70;;;;;;5007174;28;20513;-77
2021/08/22 11:51:25;;;;;;;1.50;0.90;;;27.10;77.20;;;;;;4998353;28;21012;-79
2021/08/22 11:53:53;;;;;;;1.50;0.90;;;27.20;77.30;;;;;;4988061;28;20494;-76
2021/08/22 11:56:22;;;;;;;1.50;0.80;;;27.30;76.20;;;;;;4991210;28;20863;-76
2021/08/22 11:58:49;;;;;;;1.50;0.90;;;27.40;76.30;;;;;;4994326;28;20963;-75
2021/08/22 12:01:21;;;;;;;1.50;0.90;;;27.60;76.80;;;;;;4985355;28;20480;-75
2021/08/22 12:03:58;;;;;;;1.50;0.83;;;27.60;75.40;;;;;;4989991;28;20463;-75
2021/08/22 12:06:26;;;;;;;1.50;0.90;;;27.70;76.30;;;;;;4987983;28;21378;-76
2021/08/22 12:08:54;;;;;;;1.50;0.80;;;27.80;76.60;;;;;;5013340;28;20466;-76
2021/08/22 12:11:23;;;;;;;1.50;0.80;;;27.90;75.70;;;;;;4988927;28;20484;-77
2021/08/22 12:13:52;;;;;;;1.47;0.80;;;28.00;76.70;;;;;;4985533;28;20582;-76
2021/08/22 12:16:27;;;;;;;1.50;0.80;;;28.00;75.70;;;;;;4990132;28;20484;-75
2021/08/22 12:18:54;;;;;;;1.50;0.90;;;27.80;76.50;;;;;;4998915;28;20852;-75
2021/08/22 12:21:22;;;;;;;1.50;0.80;;;27.80;78.10;;;;;;4986641;28;20680;-75
2021/08/22 12:23:51;;;;;;;1.50;0.80;;;27.60;77.40;;;;;;5004418;28;20465;-74
2021/08/22 12:26:25;;;;;;;1.47;0.80;;;27.50;77.70;;;;;;4997637;28;20484;-77
2021/08/22 12:28:53;;;;;;;1.70;1.20;;;27.30;77.30;;;;;;4988551;28;20471;-75
2021/08/22 12:31:20;;;;;;;1.50;0.80;;;27.10;78.00;;;;;;4989238;28;20983;-74
2021/08/22 12:33:48;;;;;;;1.50;0.90;;;27.00;77.00;;;;;;5000294;28;20990;-76
2021/08/22 12:36:17;;;;;;;1.50;0.80;;;26.90;76.90;;;;;;4989087;28;20701;-77
2021/08/22 12:38:47;;;;;;;1.47;0.80;;;26.80;77.40;;;;;;4986416;28;20476;-76
2021/08/22 12:41:34;;;;;;;1.50;0.90;;;26.80;77.70;;;;;;4992814;28;20488;-77
2021/08/22 12:44:03;;;;;;;1.50;0.80;;;26.70;78.70;;;;;;5000365;28;20467;-76
2021/08/22 12:46:31;;;;;;;1.50;0.90;;;26.50;78.80;;;;;;4988628;28;20486;-75
2021/08/22 12:48:58;;;;;;;1.50;0.90;;;26.30;80.00;;;;;;5012579;28;20787;-76
2021/08/22 12:51:26;;;;;;;1.50;0.87;;;26.20;80.50;;;;;;4990260;28;20488;-75
2021/08/22 12:53:53;;;;;;;1.50;0.80;;;26.20;80.10;;;;;;4989400;28;20460;-76
2021/08/22 12:56:22;;;;;;;1.50;0.80;;;26.30;80.80;;;;;;4989595;28;20523;-74
2021/08/22 12:58:51;;;;;;;1.47;0.80;;;26.50;80.00;;;;;;5000205;28;20774;-76
2021/08/22 13:01:18;;;;;;;1.50;0.90;;;26.70;80.30;;;;;;5001688;28;20488;-76
2021/08/22 13:03:45;;;;;;;1.50;0.90;;;26.80;79.10;;;;;;4997661;28;20847;-76
2021/08/22 13:06:12;;;;;;;1.50;0.90;;;26.90;79.90;;;;;;4997286;28;20893;-75